Time;durP1;ratioP1;P1;durP2;ratioP2;P2;SDS_P1;SDS_P2;PMS_P1;PMS_P2;Temp;Humidity;BMP_temperature;BMP_pressure;BME280_temperature;BME280_humidity;BME280_pressure;Samples;Min_cycle;Max_cycle;Signal;HPM_P1;HPM_P2
2023/01/15 00:01:40;;;;;;;9.67;1.90;;;9.00;99.90;;;;;;5052126;28;20628;-94
2023/01/15 00:04:11;;;;;;;10.87;2.13;;;9.10;99.90;;;;;;5051687;28;20313;-93
2023/01/15 00:06:42;;;;;;;8.50;1.90;;;9.00;99.90;;;;;;5058632;28;20202;-92
2023/01/15 00:09:14;;;;;;;13.10;3.00;;;9.00;99.90;;;;;;5046935;28;20293;-93
2023/01/15 00:11:42;;;;;;;6.33;1.93;;;9.10;99.90;;;;;;5051510;28;20276;-93
2023/01/15 00:14:09;;;;;;;4.30;1.63;;;9.00;99.90;;;;;;5053238;28;20334;-95
2023/01/15 00:16:40;;;;;;;6.57;2.03;;;9.00;99.90;;;;;;5050967;28;20285;-93
2023/01/15 00:19:11;;;;;;;9.83;2.10;;;9.00;99.90;;;;;;5055144;28;20207;-92
2023/01/15 00:21:39;;;;;;;8.77;2.50;;;9.00;99.90;;;;;;5051374;28;20206;-92
2023/01/15 00:29:37;;;;;;;8.27;1.90;;;8.90;99.90;;;;;;5059320;28;20292;-94
2023/01/15 00:32:08;;;;;;;6.77;2.07;;;8.80;99.90;;;;;;5057092;28;20239;-95
2023/01/15 00:34:36;;;;;;;7.87;1.60;;;8.70;99.90;;;;;;5042618;28;20337;-92
2023/01/15 00:37:03;;;;;;;7.30;2.20;;;8.80;99.90;;;;;;5043864;28;20237;-90
2023/01/15 00:39:30;;;;;;;7.70;2.23;;;8.90;99.90;;;;;;5046857;28;20210;-92
2023/01/15 00:42:00;;;;;;;9.77;1.90;;;8.80;99.90;;;;;;5041266;28;20230;-93
2023/01/15 00:44:28;;;;;;;13.17;1.90;;;8.80;99.90;;;;;;5044337;28;20250;-91
2023/01/15 00:46:55;;;;;;;6.03;2.23;;;8.70;99.90;;;;;;5045844;28;20203;-92
2023/01/15 00:49:22;;;;;;;8.13;2.43;;;8.70;99.90;;;;;;5045361;28;20191;-92
2023/01/15 00:51:49;;;;;;;10.90;2.03;;;8.70;99.90;;;;;;5039522;28;20238;-93
2023/01/15 00:54:20;;;;;;;6.50;1.57;;;8.70;99.90;;;;;;5037175;28;20223;-92
2023/01/15 00:56:48;;;;;;;6.23;1.60;;;8.70;99.90;;;;;;5037892;28;20279;-91
2023/01/15 00:59:17;;;;;;;8.50;1.70;;;8.70;99.90;;;;;;5038230;28;20286;-92
2023/01/15 01:01:47;;;;;;;5.83;1.63;;;8.70;99.90;;;;;;5038042;28;20322;-93
2023/01/15 01:04:16;;;;;;;9.43;1.67;;;8.70;99.90;;;;;;5037235;28;20250;-93
2023/01/15 01:06:43;;;;;;;6.87;1.43;;;8.70;99.90;;;;;;5037239;28;20227;-92
2023/01/15 01:09:12;;;;;;;7.60;2.38;;;8.70;99.90;;;;;;5038258;28;20443;-93
2023/01/15 01:11:40;;;;;;;6.40;1.60;;;8.70;99.90;;;;;;5040090;28;20564;-93
2023/01/15 01:14:07;;;;;;;5.53;1.60;;;8.70;99.90;;;;;;5040993;28;20223;-92
2023/01/15 01:16:38;;;;;;;7.83;2.10;;;8.70;99.90;;;;;;5052835;28;20218;-93
2023/01/15 01:19:08;;;;;;;7.37;1.40;;;8.60;99.90;;;;;;5078443;28;20233;-92
2023/01/15 01:21:38;;;;;;;9.50;2.07;;;8.60;99.90;;;;;;5077109;28;20302;-94
2023/01/15 01:24:08;;;;;;;12.00;1.93;;;8.60;99.90;;;;;;5062754;28;20242;-92
2023/01/15 01:26:35;;;;;;;12.53;2.57;;;8.50;99.90;;;;;;5056978;28;20707;-91
2023/01/15 01:29:02;;;;;;;8.30;1.70;;;8.50;99.90;;;;;;5057539;28;20273;-93
2023/01/15 01:31:29;;;;;;;7.67;1.80;;;8.50;99.90;;;;;;5057796;28;20297;-93
2023/01/15 01:34:03;;;;;;;10.17;2.37;;;8.50;99.90;;;;;;5057328;28;20309;-93
2023/01/15 01:36:32;;;;;;;9.27;2.00;;;8.50;99.90;;;;;;5057704;28;20208;-94
2023/01/15 01:38:59;;;;;;;8.27;1.83;;;8.40;99.90;;;;;;5057234;28;20285;-94
2023/01/15 01:41:29;;;;;;;7.53;1.50;;;8.40;99.90;;;;;;5056993;28;20264;-94
2023/01/15 01:44:01;;;;;;;7.90;1.17;;;8.40;99.90;;;;;;5058321;28;20242;-94
2023/01/15 01:46:29;;;;;;;6.73;1.70;;;8.40;99.90;;;;;;5057438;28;20210;-92
2023/01/15 01:49:04;;;;;;;7.13;1.90;;;8.40;99.90;;;;;;5057148;28;20652;-91
2023/01/15 01:51:39;;;;;;;6.13;1.40;;;8.60;99.90;;;;;;5059704;28;20200;-94
2023/01/15 01:54:07;;;;;;;8.67;1.80;;;8.40;99.90;;;;;;5059186;28;20285;-94
2023/01/15 01:56:35;;;;;;;6.30;1.90;;;8.50;99.90;;;;;;5055834;28;20206;-91
2023/01/15 01:59:04;;;;;;;11.63;1.87;;;8.50;99.90;;;;;;5058537;28;20209;-91
2023/01/15 02:01:31;;;;;;;9.47;2.10;;;8.50;99.90;;;;;;5059547;28;20234;-92
2023/01/15 02:04:00;;;;;;;7.40;1.87;;;8.50;99.90;;;;;;5064629;28;20230;-95
2023/01/15 02:06:29;;;;;;;12.43;2.07;;;8.50;99.90;;;;;;5057437;28;20218;-91
2023/01/15 02:08:56;;;;;;;8.90;2.07;;;8.40;99.90;;;;;;5057312;28;20218;-92
2023/01/15 02:11:25;;;;;;;7.63;2.07;;;8.40;99.90;;;;;;5056364;28;20352;-94
2023/01/15 02:14:00;;;;;;;9.57;2.37;;;8.40;99.90;;;;;;5057021;28;20245;-94
2023/01/15 02:16:36;;;;;;;8.47;2.00;;;8.40;99.90;;;;;;5056565;28;20655;-92
2023/01/15 02:19:22;;;;;;;12.50;2.20;;;8.30;99.90;;;;;;5056459;28;20221;-91
2023/01/15 02:21:59;;;;;;;7.20;1.90;;;8.20;99.90;;;;;;5056660;28;20242;-94
2023/01/15 02:24:36;;;;;;;8.87;1.97;;;8.20;99.90;;;;;;5057695;28;20226;-92
2023/01/15 02:27:19;;;;;;;8.07;2.07;;;8.20;99.90;;;;;;5057169;28;20241;-92
2023/01/15 02:29:54;;;;;;;9.43;2.43;;;8.20;99.90;;;;;;5057046;28;20199;-92
2023/01/15 02:32:30;;;;;;;7.57;1.90;;;8.10;99.90;;;;;;5057671;28;20232;-93
2023/01/15 02:35:04;;;;;;;12.70;2.40;;;8.10;99.90;;;;;;5057207;28;20202;-90
2023/01/15 02:37:37;;;;;;;11.40;2.00;;;8.10;99.90;;;;;;5057523;28;20205;-91
2023/01/15 02:40:09;;;;;;;7.93;2.30;;;8.10;99.90;;;;;;5042279;28;20239;-92
2023/01/15 02:42:39;;;;;;;7.43;2.23;;;8.10;99.90;;;;;;5056520;28;20597;-92
2023/01/15 02:45:10;;;;;;;9.23;2.70;;;8.00;99.90;;;;;;5057135;28;20260;-93
2023/01/15 02:47:40;;;;;;;12.50;2.30;;;8.10;99.90;;;;;;5056866;28;20223;-92
2023/01/15 02:50:13;;;;;;;7.30;2.10;;;8.10;99.90;;;;;;5056876;28;20217;-93
2023/01/15 02:52:43;;;;;;;11.43;1.90;;;8.10;99.90;;;;;;5056680;28;20280;-93
2023/01/15 02:55:16;;;;;;;14.00;2.07;;;8.10;99.90;;;;;;5056582;28;20203;-92
2023/01/15 02:57:48;;;;;;;7.17;1.90;;;8.20;99.90;;;;;;5057064;28;20206;-94
2023/01/15 03:00:18;;;;;;;9.30;2.03;;;8.10;99.90;;;;;;5056246;28;20212;-90
2023/01/15 03:02:51;;;;;;;8.93;1.90;;;8.10;99.90;;;;;;5057059;28;20772;-93
2023/01/15 03:05:22;;;;;;;6.93;1.80;;;8.10;99.90;;;;;;5057188;28;20202;-94
2023/01/15 03:07:52;;;;;;;6.10;1.93;;;8.10;99.90;;;;;;5061953;28;20663;-94
2023/01/15 03:10:21;;;;;;;9.60;1.90;;;8.10;99.90;;;;;;5062272;28;20219;-95
2023/01/15 03:13:06;;;;;;;6.83;1.80;;;8.00;99.90;;;;;;5063868;28;20225;-93
2023/01/15 03:18:31;;;;;;;5.93;1.70;;;7.90;99.90;;;;;;5058433;28;20233;-93
2023/01/15 03:21:04;;;;;;;4.20;1.53;;;7.90;99.90;;;;;;5060180;28;20229;-92
2023/01/15 03:23:47;;;;;;;14.77;2.33;;;7.90;99.90;;;;;;5061278;28;20206;-91
2023/01/15 03:26:14;;;;;;;7.97;1.87;;;7.90;99.90;;;;;;5069815;28;20226;-91
2023/01/15 03:28:50;;;;;;;5.67;1.67;;;7.90;99.90;;;;;;5076145;28;20194;-91
2023/01/15 03:31:17;;;;;;;5.73;1.63;;;7.80;99.90;;;;;;5070890;28;20205;-91
2023/01/15 03:33:46;;;;;;;7.30;1.60;;;7.80;99.90;;;;;;5065532;28;20269;-92
2023/01/15 03:36:16;;;;;;;8.80;1.77;;;7.80;99.90;;;;;;5060485;28;20230;-93
2023/01/15 03:38:46;;;;;;;7.27;1.70;;;7.90;99.90;;;;;;5060747;28;20258;-94
2023/01/15 03:41:20;;;;;;;13.00;2.63;;;7.90;99.90;;;;;;5058500;28;20426;-92
2023/01/15 03:44:03;;;;;;;13.93;1.63;;;8.00;99.90;;;;;;5060257;28;20309;-93
2023/01/15 03:46:42;;;;;;;8.63;1.93;;;7.90;99.90;;;;;;5061732;28;20217;-95
2023/01/15 03:49:20;;;;;;;9.10;1.90;;;7.80;99.90;;;;;;5061765;28;20202;-92
2023/01/15 03:51:59;;;;;;;8.33;2.03;;;7.80;99.90;;;;;;5059743;28;20226;-93
2023/01/15 03:54:33;;;;;;;5.27;1.70;;;7.80;99.90;;;;;;5065260;28;20233;-93
2023/01/15 03:57:08;;;;;;;9.97;1.90;;;7.90;99.90;;;;;;5065274;28;20267;-92
2023/01/15 04:00:00;;;;;;;8.70;1.53;;;7.80;99.90;;;;;;5067196;28;20190;-93
2023/01/15 04:02:32;;;;;;;7.70;2.10;;;7.70;99.90;;;;;;5077155;28;20210;-92
2023/01/15 04:05:00;;;;;;;9.97;1.73;;;7.60;99.90;;;;;;5076324;28;20218;-94
2023/01/15 04:07:28;;;;;;;6.33;2.00;;;7.60;99.90;;;;;;5069705;28;20236;-93
2023/01/15 04:09:56;;;;;;;9.17;1.70;;;7.60;99.90;;;;;;5067859;28;20203;-90
2023/01/15 04:12:23;;;;;;;11.93;1.50;;;7.60;99.90;;;;;;5062815;28;20206;-93
2023/01/15 04:14:51;;;;;;;5.20;1.53;;;7.60;99.90;;;;;;5063816;28;20213;-92
2023/01/15 04:17:18;;;;;;;9.37;2.00;;;7.60;99.90;;;;;;5059157;28;20217;-91
2023/01/15 04:19:48;;;;;;;10.53;1.47;;;7.70;99.90;;;;;;5059077;28;20211;-92
2023/01/15 04:22:15;;;;;;;8.07;1.63;;;7.60;99.90;;;;;;5059156;28;20227;-94
2023/01/15 04:24:42;;;;;;;4.53;1.20;;;7.60;99.90;;;;;;5066004;28;20619;-94
2023/01/15 04:27:10;;;;;;;5.17;1.23;;;7.40;99.90;;;;;;5065922;28;20202;-92
2023/01/15 04:29:37;;;;;;;8.43;1.20;;;7.50;99.90;;;;;;5068280;28;20233;-92
2023/01/15 04:32:05;;;;;;;8.93;1.63;;;7.50;99.90;;;;;;5066958;28;20584;-92
2023/01/15 04:34:34;;;;;;;4.87;1.27;;;7.40;99.90;;;;;;5097500;22;20261;-92
2023/01/15 04:37:00;;;;;;;5.50;1.40;;;7.40;99.90;;;;;;5089657;28;20252;-94
2023/01/15 04:39:30;;;;;;;4.33;1.20;;;7.40;99.90;;;;;;5087514;28;20269;-94
2023/01/15 04:44:41;;;;;;;8.17;1.77;;;7.50;99.90;;;;;;5066312;28;20209;-91
2023/01/15 04:47:10;;;;;;;9.73;1.57;;;7.40;99.90;;;;;;5066696;28;20198;-93
2023/01/15 04:49:37;;;;;;;2.40;1.10;;;7.40;99.90;;;;;;5067655;28;20293;-92
2023/01/15 04:52:04;;;;;;;5.27;1.30;;;7.40;99.90;;;;;;5065242;28;20190;-93
2023/01/15 04:54:31;;;;;;;8.70;1.20;;;7.40;99.90;;;;;;5062952;28;20309;-94
2023/01/15 04:56:58;;;;;;;7.47;1.73;;;7.50;99.90;;;;;;5065355;28;20202;-95
2023/01/15 04:59:27;;;;;;;5.87;1.70;;;7.40;99.90;;;;;;5064160;28;20199;-92
2023/01/15 05:01:55;;;;;;;6.13;1.40;;;7.30;99.90;;;;;;5062057;28;20320;-94
2023/01/15 05:04:23;;;;;;;5.80;1.20;;;7.40;99.90;;;;;;5087025;22;20320;-92
2023/01/15 05:06:52;;;;;;;5.37;1.60;;;7.50;99.90;;;;;;5081826;28;20288;-92
2023/01/15 05:09:19;;;;;;;2.53;1.10;;;7.50;99.90;;;;;;5080307;28;20198;-91
2023/01/15 05:11:46;;;;;;;8.18;2.05;;;7.50;99.90;;;;;;5080404;28;20488;-92
2023/01/15 05:14:13;;;;;;;5.90;1.40;;;7.60;99.90;;;;;;5087571;28;20230;-92
2023/01/15 05:16:40;;;;;;;8.17;1.70;;;7.60;99.90;;;;;;5081937;28;20621;-91
2023/01/15 05:19:11;;;;;;;3.83;1.20;;;7.50;99.90;;;;;;5078855;28;20309;-93
2023/01/15 05:21:44;;;;;;;5.33;1.07;;;7.30;99.90;;;;;;5081395;28;20265;-93
2023/01/15 05:24:46;;;;;;;5.97;0.97;;;7.30;99.90;;;;;;5144341;22;20247;-81
2023/01/15 05:31:12;;;;;;;3.83;1.33;;;7.20;99.90;;;;;;5094459;28;20227;-81
2023/01/15 05:33:49;;;;;;;9.23;2.00;;;7.20;99.90;;;;;;5095667;28;20236;-80
2023/01/15 05:36:42;;;;;;;5.70;1.63;;;7.10;99.90;;;;;;5095552;28;20276;-80
2023/01/15 05:39:47;;;;;;;4.53;1.20;;;7.00;99.90;;;;;;5096909;28;20205;-82
2023/01/15 05:43:26;;;;;;;3.23;1.23;;;6.80;99.90;;;;;;5096885;28;20226;-82
2023/01/15 05:48:49;;;;;;;0.50;0.40;;;6.50;99.90;;;;;;5095227;28;20202;-81
2023/01/15 05:52:03;;;;;;;2.57;0.57;;;6.10;99.90;;;;;;5095879;28;20206;-82
2023/01/15 05:58:07;;;;;;;3.13;0.93;;;5.70;99.90;;;;;;5099678;28;20190;-83
2023/01/15 06:08:30;;;;;;;9.93;1.63;;;5.60;99.90;;;;;;5077837;28;20183;-82
2023/01/15 06:38:12;;;;;;;6.40;1.00;;;5.80;99.90;;;;;;5036008;28;20223;-82
2023/01/15 07:05:37;;;;;;;8.10;2.13;;;5.90;99.90;;;;;;5037720;28;20179;-82
2023/01/15 07:21:55;;;;;;;8.90;1.60;;;5.90;99.90;;;;;;5036663;28;20816;-82
2023/01/15 07:24:52;;;;;;;8.07;2.03;;;5.90;99.90;;;;;;5036989;28;20230;-81
2023/01/15 07:34:21;;;;;;;9.27;1.63;;;5.90;99.90;;;;;;5096730;28;20221;-80
2023/01/15 07:37:36;;;;;;;10.47;2.10;;;5.90;99.90;;;;;;5092526;28;20213;-82
2023/01/15 07:40:37;;;;;;;7.72;1.60;;;5.90;99.90;;;;;;5095835;28;20438;-82
2023/01/15 07:50:02;;;;;;;8.00;1.50;;;6.00;99.90;;;;;;5097482;28;20212;-81
2023/01/15 08:03:22;;;;;;;4.13;1.27;;;5.90;99.90;;;;;;5082807;28;20247;-94
2023/01/15 08:06:05;;;;;;;10.53;1.77;;;5.80;99.90;;;;;;5065279;28;20215;-93
2023/01/15 08:08:34;;;;;;;6.90;1.50;;;5.80;99.90;;;;;;5075710;28;20259;-93
2023/01/15 08:16:35;;;;;;;6.83;1.30;;;5.80;99.90;;;;;;5084948;28;20196;-92
2023/01/15 08:19:08;;;;;;;7.33;1.37;;;5.80;99.90;;;;;;5082579;28;20202;-91
2023/01/15 08:21:43;;;;;;;5.43;1.43;;;5.80;99.90;;;;;;5085190;28;20206;-91
2023/01/15 08:24:28;;;;;;;6.70;1.20;;;5.90;99.90;;;;;;5087486;28;20221;-93
2023/01/15 08:26:56;;;;;;;6.30;1.70;;;5.90;99.90;;;;;;5090680;28;20209;-92
2023/01/15 08:29:27;;;;;;;8.53;1.67;;;5.90;99.90;;;;;;5088769;28;20218;-93
2023/01/15 08:31:54;;;;;;;11.43;2.13;;;5.90;99.90;;;;;;5083176;28;20300;-92
2023/01/15 08:34:25;;;;;;;9.07;2.03;;;5.90;99.90;;;;;;5081450;28;20222;-91
2023/01/15 08:36:58;;;;;;;8.07;1.83;;;5.90;99.90;;;;;;5081182;28;20225;-91
2023/01/15 08:39:28;;;;;;;6.60;2.07;;;5.90;99.90;;;;;;5083774;28;20204;-93
2023/01/15 08:41:56;;;;;;;9.23;2.10;;;6.00;99.90;;;;;;5080305;28;20221;-91
2023/01/15 08:44:24;;;;;;;17.93;2.27;;;6.00;99.90;;;;;;5079338;28;20363;-91
2023/01/15 08:46:58;;;;;;;8.57;1.80;;;6.00;99.90;;;;;;5083936;28;20202;-92
2023/01/15 08:49:34;;;;;;;11.27;2.00;;;6.00;99.90;;;;;;5083065;28;20704;-93
2023/01/15 08:52:03;;;;;;;10.90;3.13;;;6.10;99.90;;;;;;5083052;28;20232;-92
2023/01/15 08:54:32;;;;;;;6.43;2.00;;;6.00;99.90;;;;;;5083851;28;20242;-91
2023/01/15 08:57:02;;;;;;;7.40;1.70;;;6.00;99.90;;;;;;5086658;28;20205;-91
2023/01/15 09:02:41;;;;;;;13.73;2.47;;;6.10;99.90;;;;;;5095940;28;20276;-92
2023/01/15 09:05:23;;;;;;;6.67;1.57;;;6.10;99.90;;;;;;5094380;28;20213;-92
2023/01/15 09:07:50;;;;;;;6.33;1.63;;;6.20;99.90;;;;;;5089321;28;20197;-92
2023/01/15 09:10:18;;;;;;;7.13;1.97;;;6.10;99.90;;;;;;5084692;28;20194;-92
2023/01/15 09:12:47;;;;;;;8.27;1.70;;;6.10;99.90;;;;;;5078403;28;20306;-93
2023/01/15 09:15:16;;;;;;;10.27;1.47;;;6.20;99.90;;;;;;5080400;28;20194;-92
2023/01/15 09:17:43;;;;;;;10.93;1.83;;;6.30;99.90;;;;;;5081742;28;20198;-92
2023/01/15 09:20:14;;;;;;;7.27;1.80;;;6.40;99.90;;;;;;5080707;28;20206;-92
2023/01/15 09:22:45;;;;;;;8.23;1.97;;;6.30;99.90;;;;;;5080028;28;20360;-94
2023/01/15 09:25:12;;;;;;;8.33;1.60;;;6.30;99.90;;;;;;5077627;28;20323;-94
2023/01/15 09:27:42;;;;;;;8.57;2.03;;;6.40;99.90;;;;;;5079778;28;20222;-94
2023/01/15 09:30:14;;;;;;;10.67;1.93;;;6.40;99.90;;;;;;5081359;28;20225;-91
2023/01/15 09:32:41;;;;;;;7.43;1.77;;;6.40;99.90;;;;;;5084120;28;20249;-94
2023/01/15 09:35:13;;;;;;;7.23;1.30;;;6.40;99.90;;;;;;5081171;28;20654;-92
2023/01/15 09:37:45;;;;;;;4.47;1.10;;;6.30;99.90;;;;;;5083222;28;20209;-95
2023/01/15 09:40:36;;;;;;;3.40;1.20;;;6.20;99.90;;;;;;5083138;28;20210;-92
2023/01/15 09:43:09;;;;;;;8.17;1.93;;;6.20;99.90;;;;;;5081267;28;20257;-92
2023/01/15 09:45:44;;;;;;;4.70;1.10;;;6.10;99.90;;;;;;5078130;28;20235;-92
2023/01/15 09:48:27;;;;;;;8.90;1.57;;;6.10;99.90;;;;;;5079581;28;20245;-93
2023/01/15 09:51:18;;;;;;;4.17;1.60;;;6.10;99.90;;;;;;5077997;28;20647;-92
2023/01/15 09:54:04;;;;;;;3.83;1.10;;;6.10;99.90;;;;;;5076612;28;20226;-93
2023/01/15 09:56:34;;;;;;;4.93;1.70;;;6.00;99.90;;;;;;5076341;28;20208;-91
2023/01/15 09:59:09;;;;;;;6.30;2.30;;;6.00;99.90;;;;;;5077550;28;20201;-92
2023/01/15 10:01:37;;;;;;;3.87;0.97;;;6.00;99.90;;;;;;5077988;28;20205;-93
2023/01/15 10:04:09;;;;;;;3.90;1.00;;;6.00;99.90;;;;;;5079020;28;20709;-93
2023/01/15 10:06:44;;;;;;;4.43;1.07;;;6.00;99.90;;;;;;5079194;28;20557;-93
2023/01/15 10:09:17;;;;;;;4.03;1.00;;;6.10;99.90;;;;;;5077021;28;20604;-92
2023/01/15 10:14:38;;;;;;;1.53;0.90;;;6.00;99.90;;;;;;5056841;28;20233;-91
2023/01/15 10:17:15;;;;;;;2.63;1.10;;;5.90;99.90;;;;;;5056063;28;20216;-92
2023/01/15 10:19:42;;;;;;;5.67;1.50;;;6.00;99.90;;;;;;5057231;28;20252;-93
2023/01/15 10:22:19;;;;;;;6.07;1.30;;;5.90;99.90;;;;;;5055235;28;20206;-92
2023/01/15 10:24:57;;;;;;;2.57;1.40;;;6.00;99.90;;;;;;5055812;28;20639;-91
2023/01/15 10:27:26;;;;;;;1.50;0.90;;;6.10;99.90;;;;;;5057683;28;20229;-92
2023/01/15 10:30:02;;;;;;;2.83;0.77;;;6.20;99.90;;;;;;5057011;28;20293;-89
2023/01/15 10:32:42;;;;;;;3.60;1.10;;;6.30;99.90;;;;;;5056807;28;20620;-93
2023/01/15 10:35:30;;;;;;;7.20;0.90;;;6.30;99.90;;;;;;5057871;28;20194;-91
2023/01/15 10:38:01;;;;;;;3.27;0.93;;;6.40;99.90;;;;;;5056827;28;20737;-88
2023/01/15 10:40:46;;;;;;;1.60;1.00;;;6.40;99.90;;;;;;5056227;28;20210;-91
2023/01/15 10:43:23;;;;;;;3.57;0.93;;;6.50;99.90;;;;;;5055979;28;20257;-90
2023/01/15 10:45:54;;;;;;;4.97;1.20;;;6.70;99.90;;;;;;5056651;28;20202;-89
2023/01/15 10:48:30;;;;;;;4.10;1.00;;;6.60;99.90;;;;;;5057996;28;20232;-92
2023/01/15 10:51:05;;;;;;;3.20;1.03;;;6.70;99.90;;;;;;5057915;28;20202;-91
2023/01/15 10:53:40;;;;;;;3.73;1.10;;;6.70;99.90;;;;;;5058200;28;20225;-91
2023/01/15 10:56:16;;;;;;;5.87;1.20;;;6.70;99.90;;;;;;5057810;28;20710;-92
2023/01/15 10:58:48;;;;;;;5.07;1.93;;;6.70;99.90;;;;;;5057798;28;20237;-90
2023/01/15 11:01:20;;;;;;;1.93;1.00;;;6.80;99.90;;;;;;5056924;28;20272;-92
2023/01/15 11:03:48;;;;;;;7.00;1.57;;;6.90;99.90;;;;;;5056764;28;20645;-91
2023/01/15 11:06:18;;;;;;;5.30;1.40;;;7.10;99.90;;;;;;5057101;28;20226;-93
2023/01/15 11:08:49;;;;;;;4.27;1.30;;;7.10;99.90;;;;;;5056998;28;20202;-90
2023/01/15 11:19:35;;;;;;;4.63;2.03;;;7.20;99.90;;;;;;5056767;28;20238;-91
2023/01/15 11:19:46;;;;;;;2.87;1.13;;;7.20;99.90;;;;;;5057209;28;20197;-93
2023/01/15 11:22:16;;;;;;;6.10;1.30;;;7.30;99.90;;;;;;5057142;28;20276;-90
2023/01/15 11:27:34;;;;;;;4.30;1.13;;;7.30;99.90;;;;;;5055865;28;20244;-90
2023/01/15 11:30:03;;;;;;;4.20;1.30;;;7.30;99.90;;;;;;5055652;28;20233;-90
2023/01/15 11:32:33;;;;;;;5.87;1.23;;;7.40;99.90;;;;;;5056077;28;20206;-88
2023/01/15 11:35:02;;;;;;;4.83;1.37;;;7.40;99.90;;;;;;5058908;28;20206;-89
2023/01/15 11:37:32;;;;;;;5.13;1.37;;;7.30;99.90;;;;;;5060299;28;20206;-90
2023/01/15 11:40:05;;;;;;;5.20;1.73;;;7.50;99.90;;;;;;5060641;28;20210;-89
2023/01/15 11:51:06;;;;;;;7.47;1.33;;;7.50;99.90;;;;;;5060204;28;20190;-91
2023/01/15 11:53:38;;;;;;;2.97;1.23;;;7.50;99.90;;;;;;5060072;28;20284;-91
2023/01/15 11:56:10;;;;;;;5.03;1.50;;;7.50;99.90;;;;;;5059252;28;20571;-91
2023/01/15 11:58:45;;;;;;;2.03;1.00;;;7.50;99.90;;;;;;5060117;28;20655;-93
2023/01/15 12:01:15;;;;;;;4.93;1.17;;;7.50;99.90;;;;;;5059202;28;20305;-88
2023/01/15 12:03:44;;;;;;;4.70;1.53;;;7.50;99.90;;;;;;5058920;28;20226;-90
2023/01/15 12:06:13;;;;;;;3.77;1.23;;;7.50;99.90;;;;;;5059352;28;20293;-90
2023/01/15 12:08:47;;;;;;;3.27;1.60;;;7.50;99.90;;;;;;5059411;28;20208;-88
2023/01/15 12:11:32;;;;;;;2.67;1.30;;;7.50;99.90;;;;;;5059071;28;20205;-89
2023/01/15 12:14:19;;;;;;;6.17;1.40;;;7.50;99.90;;;;;;5059113;28;20603;-90
2023/01/15 12:16:54;;;;;;;6.40;1.37;;;7.50;99.90;;;;;;5059514;28;20262;-91
2023/01/15 12:19:29;;;;;;;5.87;1.33;;;7.60;99.90;;;;;;5058349;28;20206;-92
2023/01/15 12:22:16;;;;;;;4.73;0.80;;;7.50;99.90;;;;;;5058812;28;20565;-89
2023/01/15 12:25:02;;;;;;;4.10;1.37;;;7.50;99.90;;;;;;5059383;28;20333;-91
2023/01/15 12:28:03;;;;;;;6.60;1.70;;;7.60;99.90;;;;;;5028119;28;20663;-90
2023/01/15 12:30:46;;;;;;;4.17;1.37;;;7.70;99.90;;;;;;5045674;28;20198;-89
2023/01/15 12:33:38;;;;;;;4.60;1.30;;;7.80;99.90;;;;;;5057719;28;20245;-87
2023/01/15 12:36:11;;;;;;;4.10;1.33;;;7.90;99.90;;;;;;5060666;28;20297;-87
2023/01/15 12:39:34;;;;;;;2.73;1.40;;;7.90;99.90;;;;;;5094733;28;20185;-86
2023/01/15 12:45:30;;;;;;;4.83;1.40;;;8.10;99.90;;;;;;5088904;28;20252;-89
2023/01/15 12:48:35;;;;;;;5.90;1.20;;;8.10;99.90;;;;;;5097048;28;20301;-88
2023/01/15 12:51:20;;;;;;;5.17;1.17;;;8.10;99.90;;;;;;5082565;28;20193;-90
2023/01/15 12:53:59;;;;;;;4.13;1.40;;;8.10;99.90;;;;;;5084475;28;20229;-90
2023/01/15 12:56:29;;;;;;;3.07;1.20;;;8.20;99.90;;;;;;5084455;28;20217;-89
2023/01/15 12:59:05;;;;;;;4.23;1.20;;;8.30;99.90;;;;;;5087839;28;20202;-88
2023/01/15 13:01:45;;;;;;;2.77;0.80;;;8.20;99.90;;;;;;5084953;28;20197;-93
2023/01/15 13:04:30;;;;;;;2.83;1.03;;;8.10;99.90;;;;;;5065442;28;20698;-90
2023/01/15 13:07:04;;;;;;;2.40;1.23;;;8.10;99.90;;;;;;5081783;28;20216;-88
2023/01/15 13:09:43;;;;;;;3.73;1.13;;;8.10;99.90;;;;;;5062613;28;20220;-88
2023/01/15 13:14:53;;;;;;;2.27;0.97;;;8.00;99.90;;;;;;5078136;22;20233;-89
2023/01/15 13:17:29;;;;;;;2.43;0.97;;;8.10;99.90;;;;;;5078048;28;20206;-90
2023/01/15 13:20:25;;;;;;;3.30;1.00;;;8.10;99.90;;;;;;5063447;28;20216;-87
2023/01/15 13:23:04;;;;;;;2.47;0.80;;;8.10;99.90;;;;;;5047895;28;20226;-89
2023/01/15 13:26:07;;;;;;;1.33;0.70;;;7.90;99.90;;;;;;5056459;28;20181;-89
2023/01/15 13:29:12;;;;;;;4.70;1.20;;;7.70;99.90;;;;;;5060404;28;20290;-89
2023/01/15 13:31:56;;;;;;;5.47;1.20;;;7.50;99.90;;;;;;5068637;28;20233;-90
2023/01/15 13:34:30;;;;;;;2.27;1.27;;;7.40;99.90;;;;;;5058899;28;20695;-89
2023/01/15 13:37:15;;;;;;;2.67;0.93;;;7.30;99.90;;;;;;5062339;28;20289;-91
2023/01/15 13:39:45;;;;;;;5.00;1.40;;;7.20;99.90;;;;;;5052703;28;20297;-90
2023/01/15 13:42:33;;;;;;;2.27;1.00;;;7.20;99.90;;;;;;5044755;28;20616;-89
2023/01/15 13:45:04;;;;;;;0.97;0.70;;;7.20;99.90;;;;;;5048312;28;20651;-88
2023/01/15 13:47:35;;;;;;;1.87;1.03;;;7.10;99.90;;;;;;5053865;28;20203;-90
2023/01/15 13:50:05;;;;;;;2.63;1.10;;;7.00;99.90;;;;;;5055576;28;20285;-90
2023/01/15 13:52:36;;;;;;;1.40;1.10;;;7.00;99.90;;;;;;5057517;28;20205;-90
2023/01/15 13:55:11;;;;;;;2.03;0.83;;;7.00;99.90;;;;;;5056846;28;20205;-92
2023/01/15 13:57:40;;;;;;;3.47;1.20;;;7.00;99.90;;;;;;5059669;28;20647;-91
2023/01/15 14:00:09;;;;;;;5.40;1.60;;;7.00;99.90;;;;;;5046609;28;20643;-92
2023/01/15 14:02:39;;;;;;;4.23;1.90;;;7.00;99.90;;;;;;5045477;28;20325;-92
2023/01/15 14:05:24;;;;;;;4.53;2.63;;;6.90;99.90;;;;;;5060325;28;20226;-88
2023/01/15 14:07:54;;;;;;;4.20;1.10;;;6.90;99.90;;;;;;5047193;28;20194;-93
2023/01/15 14:10:26;;;;;;;4.47;1.30;;;7.00;99.90;;;;;;5058308;28;20202;-89
2023/01/15 14:13:14;;;;;;;4.03;1.80;;;7.00;99.90;;;;;;5054062;22;20825;-88
2023/01/15 14:15:52;;;;;;;1.47;1.10;;;7.00;99.90;;;;;;5060243;28;20432;-91
2023/01/15 14:18:57;;;;;;;2.63;1.20;;;7.00;99.90;;;;;;5059839;28;20336;-92
2023/01/15 14:21:34;;;;;;;4.37;1.10;;;7.00;99.90;;;;;;5032430;28;20297;-90
2023/01/15 14:24:35;;;;;;;3.30;1.40;;;7.00;99.90;;;;;;5048437;28;20286;-90
2023/01/15 14:27:09;;;;;;;3.70;1.27;;;7.00;99.90;;;;;;5032172;28;20184;-89
2023/01/15 14:29:57;;;;;;;2.23;1.20;;;7.00;99.90;;;;;;5058047;28;20258;-91
2023/01/15 14:32:40;;;;;;;5.43;1.50;;;7.00;99.90;;;;;;5049297;28;20735;-89
2023/01/15 14:35:14;;;;;;;1.17;0.93;;;7.00;99.90;;;;;;5025954;28;20673;-88
2023/01/15 14:37:47;;;;;;;2.40;1.20;;;7.10;99.90;;;;;;5035438;28;20291;-90
2023/01/15 14:40:23;;;;;;;2.67;1.07;;;7.00;99.90;;;;;;5037052;28;20694;-91
2023/01/15 14:43:01;;;;;;;2.53;1.10;;;7.00;99.90;;;;;;5027584;28;20471;-90
2023/01/15 14:45:30;;;;;;;1.10;0.90;;;7.00;99.90;;;;;;5017042;28;20707;-90
2023/01/15 14:47:58;;;;;;;3.43;1.30;;;7.00;99.90;;;;;;5035589;28;20633;-88
2023/01/15 14:50:32;;;;;;;3.23;1.13;;;7.00;99.90;;;;;;5035356;28;20195;-89
2023/01/15 14:53:03;;;;;;;5.37;1.27;;;7.10;99.90;;;;;;5044444;28;20276;-91
2023/01/15 14:55:34;;;;;;;1.20;0.87;;;7.00;99.90;;;;;;5037613;28;20195;-89
2023/01/15 14:58:04;;;;;;;5.33;1.20;;;7.00;99.90;;;;;;5034098;28;20204;-91
2023/01/15 15:00:36;;;;;;;2.27;1.00;;;7.10;99.90;;;;;;5048088;28;20211;-91
2023/01/15 15:03:12;;;;;;;5.20;1.33;;;7.00;99.90;;;;;;5034796;28;20219;-92
2023/01/15 15:05:44;;;;;;;2.13;1.23;;;6.90;99.90;;;;;;5021820;28;20223;-88
2023/01/15 15:08:13;;;;;;;2.53;1.13;;;6.80;99.90;;;;;;5016818;28;20207;-89
2023/01/15 15:10:46;;;;;;;3.37;1.10;;;6.90;99.90;;;;;;5034927;28;20214;-92
2023/01/15 15:13:21;;;;;;;1.53;0.83;;;6.80;99.90;;;;;;5034029;28;20230;-91
2023/01/15 15:15:53;;;;;;;3.63;0.70;;;6.60;99.90;;;;;;5016893;28;20231;-93
2023/01/15 15:18:29;;;;;;;2.90;1.13;;;6.60;99.90;;;;;;5017323;28;20195;-91
2023/01/15 15:21:04;;;;;;;2.40;0.70;;;6.50;99.90;;;;;;5045232;28;20198;-89
2023/01/15 15:23:40;;;;;;;1.67;0.60;;;6.40;99.90;;;;;;5016953;28;20591;-91
2023/01/15 15:26:22;;;;;;;4.00;1.33;;;6.40;99.90;;;;;;5034525;28;20209;-89
2023/01/15 15:28:57;;;;;;;3.93;1.00;;;6.30;99.90;;;;;;5034669;28;20210;-88
2023/01/15 15:31:28;;;;;;;1.57;0.93;;;6.30;99.90;;;;;;5033684;28;20198;-89
2023/01/15 15:33:56;;;;;;;3.97;1.13;;;6.30;99.90;;;;;;5033737;28;20230;-90
2023/01/15 15:36:24;;;;;;;3.80;1.20;;;6.30;99.90;;;;;;5047223;28;20309;-88
2023/01/15 15:38:56;;;;;;;2.17;1.10;;;6.40;99.90;;;;;;5039322;28;20302;-90
2023/01/15 15:50:02;;;;;;;2.27;0.90;;;6.00;99.90;;;;;;5046925;28;20189;-91
2023/01/15 15:52:29;;;;;;;1.03;0.80;;;5.90;99.90;;;;;;5048452;28;20203;-90
2023/01/15 15:54:59;;;;;;;3.50;0.73;;;6.00;99.90;;;;;;5033031;28;20312;-90
2023/01/15 15:57:29;;;;;;;1.80;1.10;;;5.80;99.90;;;;;;5042811;28;20672;-90
2023/01/15 15:59:58;;;;;;;0.83;0.83;;;5.90;99.90;;;;;;5048275;28;20644;-91
2023/01/15 16:02:33;;;;;;;2.80;1.03;;;5.80;99.90;;;;;;5043984;28;20194;-92
2023/01/15 16:05:02;;;;;;;5.10;1.20;;;5.80;99.90;;;;;;5045057;28;20226;-91
2023/01/15 16:07:32;;;;;;;2.73;1.20;;;5.70;99.90;;;;;;5045173;28;20283;-90
2023/01/15 16:10:03;;;;;;;1.73;0.93;;;5.70;99.90;;;;;;5050095;28;20226;-90
2023/01/15 16:12:37;;;;;;;1.27;0.60;;;5.60;99.90;;;;;;5043352;28;20298;-90
2023/01/15 16:15:05;;;;;;;2.03;0.80;;;5.60;99.90;;;;;;5044537;28;20198;-91